sensor_id;sensor_type;location;lat;lon;timestamp;temperature;humidity
22676;DHT22;12521;43.310;21.876;2024-03-02T00:37:03;11.2;96.0
22676;DHT22;12521;43.310;21.876;2024-03-02T00:41:42;11.2;96.0
22676;DHT22;12521;43.310;21.876;2024-03-02T00:46:20;11.2;96.0
22676;DHT22;12521;43.310;21.876;2024-03-02T00:50:57;11.2;96.0
22676;DHT22;12521;43.310;21.876;2024-03-02T00:55:38;11.2;96.0
22676;DHT22;12521;43.310;21.876;2024-03-02T01:00:17;11.2;96.0
22676;DHT22;12521;43.310;21.876;2024-03-02T01:04:53;11.2;96.0
22676;DHT22;12521;43.310;21.876;2024-03-02T02:18:39;10.9;96.0
22676;DHT22;12521;43.310;21.876;2024-03-02T02:23:15;10.9;96.0
22676;DHT22;12521;43.310;21.876;2024-03-02T02:27:53;10.9;96.0
22676;DHT22;12521;43.310;21.876;2024-03-02T02:32:29;10.9;96.0
22676;DHT22;12521;43.310;21.876;2024-03-02T02:37:06;10.9;96.0
22676;DHT22;12521;43.310;21.876;2024-03-02T02:41:42;10.9;96.0
22676;DHT22;12521;43.310;21.876;2024-03-02T03:00:16;10.7;96.0
22676;DHT22;12521;43.310;21.876;2024-03-02T03:04:53;10.7;96.0
22676;DHT22;12521;43.310;21.876;2024-03-02T03:09:29;10.7;96.0
22676;DHT22;12521;43.310;21.876;2024-03-02T03:14:05;10.7;96.0
22676;DHT22;12521;43.310;21.876;2024-03-02T03:18:42;10.8;96.0
22676;DHT22;12521;43.310;21.876;2024-03-02T03:23:18;10.8;96.0
22676;DHT22;12521;43.310;21.876;2024-03-02T03:27:54;10.8;96.0
22676;DHT22;12521;43.310;21.876;2024-03-02T03:32:30;10.8;96.0
22676;DHT22;12521;43.310;21.876;2024-03-02T03:37:06;10.8;96.0
22676;DHT22;12521;43.310;21.876;2024-03-02T03:41:42;10.8;96.0
22676;DHT22;12521;43.310;21.876;2024-03-02T03:46:18;10.7;96.0
22676;DHT22;12521;43.310;21.876;2024-03-02T03:50:54;10.7;96.0
22676;DHT22;12521;43.310;21.876;2024-03-02T03:55:31;10.7;96.0
22676;DHT22;12521;43.310;21.876;2024-03-02T04:00:10;10.7;96.0
22676;DHT22;12521;43.310;21.876;2024-03-02T04:04:48;10.7;96.0
22676;DHT22;12521;43.310;21.876;2024-03-02T05:00:07;10.7;96.0
22676;DHT22;12521;43.310;21.876;2024-03-02T05:04:44;10.7;96.0
22676;DHT22;12521;43.310;21.876;2024-03-02T05:09:20;10.7;96.0
22676;DHT22;12521;43.310;21.876;2024-03-02T05:13:56;10.7;96.0
22676;DHT22;12521;43.310;21.876;2024-03-02T05:18:32;10.7;96.0
22676;DHT22;12521;43.310;21.876;2024-03-02T05:23:08;10.7;96.0
22676;DHT22;12521;43.310;21.876;2024-03-02T05:59:59;10.7;96.0
22676;DHT22;12521;43.310;21.876;2024-03-02T06:04:36;10.7;96.0
22676;DHT22;12521;43.310;21.876;2024-03-02T06:09:12;10.7;96.0
22676;DHT22;12521;43.310;21.876;2024-03-02T06:13:48;10.7;96.0
22676;DHT22;12521;43.310;21.876;2024-03-02T06:18:24;10.7;96.0
22676;DHT22;12521;43.310;21.876;2024-03-02T06:23:00;10.7;96.0
22676;DHT22;12521;43.310;21.876;2024-03-02T06:59:50;10.6;96.0
22676;DHT22;12521;43.310;21.876;2024-03-02T07:04:26;10.6;96.0
22676;DHT22;12521;43.310;21.876;2024-03-02T07:09:03;10.6;96.0
22676;DHT22;12521;43.310;21.876;2024-03-02T07:13:39;10.6;96.0
22676;DHT22;12521;43.310;21.876;2024-03-02T07:18:16;10.6;96.0
22676;DHT22;12521;43.310;21.876;2024-03-02T07:22:52;10.6;96.0
22676;DHT22;12521;43.310;21.876;2024-03-02T07:27:31;10.7;96.0
22676;DHT22;12521;43.310;21.876;2024-03-02T07:32:10;10.7;96.0
22676;DHT22;12521;43.310;21.876;2024-03-02T07:36:47;10.7;96.0
22676;DHT22;12521;43.310;21.876;2024-03-02T07:41:23;10.7;96.0
22676;DHT22;12521;43.310;21.876;2024-03-02T07:46:00;10.7;96.0
22676;DHT22;12521;43.310;21.876;2024-03-02T08:18:15;10.7;96.0
22676;DHT22;12521;43.310;21.876;2024-03-02T08:22:52;10.7;96.0
22676;DHT22;12521;43.310;21.876;2024-03-02T08:27:30;10.7;96.0
22676;DHT22;12521;43.310;21.876;2024-03-02T08:32:07;10.7;96.0
22676;DHT22;12521;43.310;21.876;2024-03-02T08:36:44;10.7;96.0
22676;DHT22;12521;43.310;21.876;2024-03-02T08:41:21;10.7;96.0
22676;DHT22;12521;43.310;21.876;2024-03-02T08:45:58;10.7;96.0
22676;DHT22;12521;43.310;21.876;2024-03-02T08:59:46;11.2;96.0
22676;DHT22;12521;43.310;21.876;2024-03-02T09:04:22;11.2;96.0
22676;DHT22;12521;43.310;21.876;2024-03-02T09:08:58;11.2;96.0
22676;DHT22;12521;43.310;21.876;2024-03-02T09:13:36;11.2;96.0
22676;DHT22;12521;43.310;21.876;2024-03-02T09:18:12;11.2;96.0
22676;DHT22;12521;43.310;21.876;2024-03-02T09:22:49;11.2;96.0
22676;DHT22;12521;43.310;21.876;2024-03-02T10:18:13;12.3;96.0
22676;DHT22;12521;43.310;21.876;2024-03-02T10:22:49;12.3;96.0
22676;DHT22;12521;43.310;21.876;2024-03-02T10:27:28;12.3;96.0
22676;DHT22;12521;43.310;21.876;2024-03-02T10:32:10;12.3;96.0
22676;DHT22;12521;43.310;21.876;2024-03-02T10:36:47;12.4;96.0
22676;DHT22;12521;43.310;21.876;2024-03-02T10:41:32;12.4;96.0
22676;DHT22;12521;43.310;21.876;2024-03-02T10:46:19;12.6;96.0
22676;DHT22;12521;43.310;21.876;2024-03-02T10:50:56;12.6;96.0
22676;DHT22;12521;43.310;21.876;2024-03-02T10:55:32;12.6;96.0
22676;DHT22;12521;43.310;21.876;2024-03-02T11:00:14;13.0;96.0
22676;DHT22;12521;43.310;21.876;2024-03-02T11:05:04;13.0;96.0
22676;DHT22;12521;43.310;21.876;2024-03-02T11:10:01;13.4;96.0
22676;DHT22;12521;43.310;21.876;2024-03-02T11:14:42;13.4;96.0
22676;DHT22;12521;43.310;21.876;2024-03-02T11:19:20;13.4;96.0
22676;DHT22;12521;43.310;21.876;2024-03-02T11:23:57;13.4;96.0
22676;DHT22;12521;43.310;21.876;2024-03-02T13:19:59;14.8;96.0
22676;DHT22;12521;43.310;21.876;2024-03-02T13:24:35;14.8;96.0
22676;DHT22;12521;43.310;21.876;2024-03-02T13:29:12;14.8;96.0
22676;DHT22;12521;43.310;21.876;2024-03-02T13:33:48;14.8;96.0
22676;DHT22;12521;43.310;21.876;2024-03-02T13:38:25;14.8;96.0
22676;DHT22;12521;43.310;21.876;2024-03-02T13:43:03;14.8;96.0
22676;DHT22;12521;43.310;21.876;2024-03-02T13:56:52;15.4;96.0
22676;DHT22;12521;43.310;21.876;2024-03-02T14:01:29;15.4;96.0
22676;DHT22;12521;43.310;21.876;2024-03-02T14:06:05;15.4;96.0
22676;DHT22;12521;43.310;21.876;2024-03-02T14:10:42;15.4;96.0
22676;DHT22;12521;43.310;21.876;2024-03-02T14:15:18;15.4;96.0
22676;DHT22;12521;43.310;21.876;2024-03-02T14:19:54;15.4;96.0
22676;DHT22;12521;43.310;21.876;2024-03-02T14:24:30;15.4;96.0
22676;DHT22;12521;43.310;21.876;2024-03-02T15:38:06;14.0;96.0
22676;DHT22;12521;43.310;21.876;2024-03-02T15:42:43;14.0;96.0
22676;DHT22;12521;43.310;21.876;2024-03-02T15:47:19;14.0;96.0
22676;DHT22;12521;43.310;21.876;2024-03-02T15:51:55;14.0;96.0
22676;DHT22;12521;43.310;21.876;2024-03-02T15:56:31;14.0;96.0
22676;DHT22;12521;43.310;21.876;2024-03-02T16:01:08;14.0;96.0
22676;DHT22;12521;43.310;21.876;2024-03-02T16:05:44;14.0;96.0
22676;DHT22;12521;43.310;21.876;2024-03-02T17:00:57;12.1;96.0
22676;DHT22;12521;43.310;21.876;2024-03-02T17:05:33;12.1;96.0
22676;DHT22;12521;43.310;21.876;2024-03-02T17:10:11;12.1;96.0
22676;DHT22;12521;43.310;21.876;2024-03-02T17:14:47;12.1;96.0
22676;DHT22;12521;43.310;21.876;2024-03-02T17:19:23;11.9;96.0
22676;DHT22;12521;43.310;21.876;2024-03-02T17:24:00;11.9;96.0
22676;DHT22;12521;43.310;21.876;2024-03-02T17:28:36;11.7;96.0
22676;DHT22;12521;43.310;21.876;2024-03-02T17:33:12;11.7;96.0
22676;DHT22;12521;43.310;21.876;2024-03-02T17:37:49;11.7;96.0
22676;DHT22;12521;43.310;21.876;2024-03-02T17:42:25;11.7;96.0
22676;DHT22;12521;43.310;21.876;2024-03-02T18:19:20;10.8;96.0
22676;DHT22;12521;43.310;21.876;2024-03-02T18:23:56;10.8;96.0
22676;DHT22;12521;43.310;21.876;2024-03-02T18:28:33;10.8;96.0
22676;DHT22;12521;43.310;21.876;2024-03-02T18:33:09;10.8;96.0
22676;DHT22;12521;43.310;21.876;2024-03-02T18:37:45;10.8;96.0
22676;DHT22;12521;43.310;21.876;2024-03-02T18:42:21;10.8;96.0
22676;DHT22;12521;43.310;21.876;2024-03-02T18:46:58;10.7;96.0
22676;DHT22;12521;43.310;21.876;2024-03-02T18:51:34;10.7;96.0
22676;DHT22;12521;43.310;21.876;2024-03-02T18:56:10;10.7;96.0
22676;DHT22;12521;43.310;21.876;2024-03-02T19:00:47;10.6;96.0
22676;DHT22;12521;43.310;21.876;2024-03-02T19:05:23;10.6;96.0
22676;DHT22;12521;43.310;21.876;2024-03-02T19:10:00;10.5;96.0
22676;DHT22;12521;43.310;21.876;2024-03-02T19:14:37;10.5;96.0
22676;DHT22;12521;43.310;21.876;2024-03-02T19:19:14;10.5;96.0
22676;DHT22;12521;43.310;21.876;2024-03-02T19:23:50;10.5;96.0
22676;DHT22;12521;43.310;21.876;2024-03-02T19:37:39;10.4;96.0
22676;DHT22;12521;43.310;21.876;2024-03-02T19:42:15;10.4;96.0
22676;DHT22;12521;43.310;21.876;2024-03-02T19:46:52;10.4;96.0
22676;DHT22;12521;43.310;21.876;2024-03-02T19:51:28;10.4;96.0
22676;DHT22;12521;43.310;21.876;2024-03-02T19:56:05;10.4;96.0
22676;DHT22;12521;43.310;21.876;2024-03-02T20:00:42;10.2;96.0
22676;DHT22;12521;43.310;21.876;2024-03-02T20:05:18;10.2;96.0
22676;DHT22;12521;43.310;21.876;2024-03-02T20:09:54;10.1;96.0
22676;DHT22;12521;43.310;21.876;2024-03-02T20:14:30;10.1;96.0
22676;DHT22;12521;43.310;21.876;2024-03-02T20:19:06;10.1;96.0
22676;DHT22;12521;43.310;21.876;2024-03-02T20:23:43;10.1;96.0
22676;DHT22;12521;43.310;21.876;2024-03-02T21:37:28;9.4;96.0
22676;DHT22;12521;43.310;21.876;2024-03-02T21:42:05;9.4;96.0
22676;DHT22;12521;43.310;21.876;2024-03-02T21:46:41;9.4;96.0
22676;DHT22;12521;43.310;21.876;2024-03-02T21:51:18;9.4;96.0
22676;DHT22;12521;43.310;21.876;2024-03-02T21:55:54;9.4;96.0
22676;DHT22;12521;43.310;21.876;2024-03-02T22:00:31;9.4;96.0
22676;DHT22;12521;43.310;21.876;2024-03-02T22:05:08;9.4;96.0
22676;DHT22;12521;43.310;21.876;2024-03-02T23:00:34;8.8;96.0
22676;DHT22;12521;43.310;21.876;2024-03-02T23:05:11;8.8;96.0
22676;DHT22;12521;43.310;21.876;2024-03-02T23:09:48;8.8;96.0
22676;DHT22;12521;43.310;21.876;2024-03-02T23:14:24;8.8;96.0
22676;DHT22;12521;43.310;21.876;2024-03-02T23:19:02;8.8;96.0
22676;DHT22;12521;43.310;21.876;2024-03-02T23:23:38;8.8;96.0
